Time;durP1;ratioP1;P1;durP2;ratioP2;P2;SDS_P1;SDS_P2;PMS_P1;PMS_P2;Temp;Humidity;BMP_temperature;BMP_pressure;BME280_temperature;BME280_humidity;BME280_pressure;Samples;Min_cycle;Max_cycle;Signal;HPM_P1;HPM_P2
2021/07/16 00:01:31;;;;;;;5.00;2.60;;;;;;;18.18;76.53;98332.59;5015582;28;20495;-59
2021/07/16 00:03:57;;;;;;;6.22;4.00;;;;;;;18.21;76.58;98334.81;5014825;28;20022;-58
2021/07/16 00:06:24;;;;;;;5.38;2.65;;;;;;;18.20;76.03;98325.31;5034828;28;20075;-58
2021/07/16 00:08:49;;;;;;;10.10;9.23;;;;;;;18.14;76.71;98326.91;5016433;28;20037;-59
2021/07/16 00:11:14;;;;;;;6.90;2.90;;;;;;;18.17;75.96;98320.47;5018524;28;20509;-59
2021/07/16 00:13:40;;;;;;;6.05;2.83;;;;;;;17.91;76.32;98279.94;5018932;28;20031;-59
2021/07/16 00:16:06;;;;;;;6.82;3.05;;;;;;;18.19;76.18;98307.91;5015205;28;20045;-59
2021/07/16 00:18:32;;;;;;;8.05;2.78;;;;;;;18.17;75.82;98305.47;5007549;28;20033;-59
2021/07/16 00:20:58;;;;;;;6.95;2.58;;;;;;;18.07;75.80;98305.06;5014333;28;20033;-58
2021/07/16 00:23:23;;;;;;;5.00;2.40;;;;;;;18.01;76.01;98296.13;5011216;28;20033;-59
2021/07/16 00:25:49;;;;;;;7.30;2.70;;;;;;;17.59;75.66;98228.88;5036678;28;20033;-59
2021/07/16 00:28:14;;;;;;;6.40;3.13;;;;;;;18.05;74.83;98296.53;5018409;28;20389;-57
2021/07/16 00:30:39;;;;;;;5.72;2.40;;;;;;;18.05;74.78;98305.28;5031009;28;20464;-59
2021/07/16 00:33:05;;;;;;;5.75;4.00;;;;;;;18.08;74.58;98295.34;5018567;28;20036;-59
2021/07/16 00:35:31;;;;;;;6.43;3.55;;;;;;;17.90;74.80;98280.94;5022989;28;20036;-59
2021/07/16 00:37:56;;;;;;;6.63;2.85;;;;;;;17.95;75.21;98296.94;5021696;28;20033;-57
2021/07/16 00:40:22;;;;;;;6.78;2.65;;;;;;;17.97;76.06;98305.44;5023068;28;20042;-59
2021/07/16 00:42:47;;;;;;;6.80;3.05;;;;;;;17.78;77.17;98278.06;5021421;28;20041;-59
2021/07/16 00:45:14;;;;;;;4.70;2.50;;;;;;;18.00;77.02;98314.78;5023303;28;20498;-59
2021/07/16 00:47:40;;;;;;;5.40;3.20;;;;;;;17.79;76.84;98286.75;5021683;28;20033;-59
2021/07/16 00:50:09;;;;;;;23.95;22.13;;;;;;;17.95;76.98;98315.34;5024998;28;20040;-59
2021/07/16 00:52:34;;;;;;;8.52;7.18;;;;;;;17.86;77.08;98300.78;5018667;28;20441;-59
2021/07/16 00:55:00;;;;;;;8.07;4.05;;;;;;;17.81;77.40;98303.94;5037507;28;20033;-61
2021/07/16 00:57:25;;;;;;;8.98;8.13;;;;;;;17.89;77.33;98303.00;5018799;28;20069;-58
2021/07/16 00:59:51;;;;;;;5.10;2.67;;;;;;;17.84;77.57;98289.63;5022656;28;20037;-60
2021/07/16 01:02:16;;;;;;;8.88;5.80;;;;;;;17.86;77.52;98283.16;5032426;28;20038;-59
2021/07/16 01:04:42;;;;;;;5.80;2.90;;;;;;;17.83;77.56;98285.34;5018326;28;20520;-58
2021/07/16 01:07:08;;;;;;;6.57;3.53;;;;;;;17.85;77.75;98278.09;5035511;28;20026;-59
2021/07/16 01:09:33;;;;;;;4.22;2.50;;;;;;;17.64;77.08;98260.66;5022385;28;20037;-59
2021/07/16 01:12:04;;;;;;;5.82;2.95;;;;;;;17.77;76.93;98273.81;5024437;28;20021;-59
2021/07/16 01:14:30;;;;;;;16.90;15.73;;;;;;;17.44;77.88;98245.63;5016933;28;20119;-59
2021/07/16 01:16:56;;;;;;;8.07;7.38;;;;;;;17.64;78.18;98287.72;5023270;28;20101;-59
2021/07/16 01:19:40;;;;;;;6.10;3.78;;;;;;;17.59;78.50;98294.59;5020843;28;20076;-58
2021/07/16 01:22:08;;;;;;;21.27;19.70;;;;;;;17.60;77.85;98283.88;5034489;28;20029;-59
2021/07/16 01:24:34;;;;;;;6.90;5.38;;;;;;;17.61;77.58;98292.56;5036414;28;20446;-59
2021/07/16 01:26:59;;;;;;;7.20;4.65;;;;;;;17.59;78.00;98291.97;5016429;28;20037;-58
2021/07/16 01:29:25;;;;;;;7.65;2.67;;;;;;;17.60;78.21;98294.41;5035232;28;20017;-58
2021/07/16 01:31:50;;;;;;;9.27;8.27;;;;;;;17.57;78.08;98286.91;5023413;28;20476;-59
2021/07/16 01:34:18;;;;;;;6.53;4.10;;;;;;;17.59;78.13;98281.44;5019770;28;20120;-59
2021/07/16 01:36:43;;;;;;;6.47;3.35;;;;;;;17.45;77.91;98241.16;5018220;28;20029;-58
2021/07/16 01:39:08;;;;;;;5.07;2.33;;;;;;;17.66;77.76;98269.13;5021267;28;20035;-59
2021/07/16 01:41:34;;;;;;;5.35;2.58;;;;;;;17.51;77.38;98234.34;5019280;28;20426;-59
2021/07/16 01:43:59;;;;;;;5.70;3.72;;;;;;;17.66;78.12;98283.09;5022000;28;20025;-59
2021/07/16 01:46:25;;;;;;;6.82;3.28;;;;;;;17.38;78.26;98235.09;5038008;28;20059;-58
2021/07/16 01:48:50;;;;;;;5.15;2.67;;;;;;;17.66;78.16;98277.81;5019271;28;20049;-59
2021/07/16 01:51:15;;;;;;;5.65;2.60;;;;;;;17.66;78.10;98274.41;5018270;28;20892;-62
2021/07/16 01:53:41;;;;;;;5.43;2.45;;;;;;;17.60;77.83;98276.00;5017742;28;20021;-59
2021/07/16 01:56:06;;;;;;;6.68;4.28;;;;;;;17.70;77.54;98286.13;5029944;28;20060;-59
2021/07/16 01:58:31;;;;;;;6.22;3.10;;;;;;;17.67;77.68;98289.97;5021752;28;20018;-60
2021/07/16 02:00:57;;;;;;;7.43;6.10;;;;;;;17.43;77.57;98254.53;5015735;28;20037;-59
2021/07/16 02:03:23;;;;;;;5.55;3.17;;;;;;;17.71;77.29;98286.97;5020763;28;20036;-59
2021/07/16 02:05:49;;;;;;;5.15;3.72;;;;;;;17.72;76.97;98286.75;5039638;28;20498;-57
2021/07/16 02:08:15;;;;;;;4.55;2.45;;;;;;;17.51;77.17;98258.00;5020091;28;20703;-60
2021/07/16 02:10:46;;;;;;;5.38;2.47;;;;;;;17.77;77.42;98299.31;5022566;28;20033;-58
2021/07/16 02:13:12;;;;;;;5.35;2.70;;;;;;;17.70;77.45;98288.75;5020949;28;20048;-59
2021/07/16 02:15:40;;;;;;;6.15;2.40;;;;;;;17.73;77.17;98287.56;5025294;28;20057;-58
2021/07/16 02:18:05;;;;;;;4.60;2.67;;;;;;;17.46;77.04;98248.84;5016367;28;20126;-59
2021/07/16 02:20:36;;;;;;;5.30;3.08;;;;;;;17.64;76.97;98279.03;5022034;28;20469;-59
2021/07/16 02:23:17;;;;;;;5.57;2.20;;;;;;;17.68;76.54;98280.25;5022991;28;20436;-59
2021/07/16 02:25:42;;;;;;;5.82;2.85;;;;;;;17.66;76.48;98274.41;5024955;28;20029;-62
2021/07/16 02:28:12;;;;;;;5.63;3.08;;;;;;;17.74;76.40;98274.22;5003795;28;20032;-59
2021/07/16 02:30:37;;;;;;;6.90;4.20;;;;;;;17.75;75.93;98275.03;5018957;28;20033;-59
2021/07/16 02:33:03;;;;;;;5.45;2.40;;;;;;;17.73;76.17;98261.28;5022601;28;20605;-58
2021/07/16 02:35:29;;;;;;;5.00;2.50;;;;;;;17.73;76.18;98267.34;5014154;28;20422;-59
2021/07/16 02:37:56;;;;;;;7.28;2.72;;;;;;;17.78;76.25;98256.22;5023555;28;20064;-59
2021/07/16 02:40:21;;;;;;;5.15;2.33;;;;;;;17.87;75.85;98260.31;5020258;28;20112;-59
2021/07/16 02:42:47;;;;;;;7.65;2.30;;;;;;;17.77;76.38;98246.72;5020369;28;20100;-59
2021/07/16 02:45:15;;;;;;;5.35;2.85;;;;;;;17.71;76.64;98245.69;5021086;28;20079;-59
2021/07/16 02:47:40;;;;;;;7.40;2.30;;;;;;;17.68;76.70;98246.88;5021299;28;20025;-58
2021/07/16 02:50:08;;;;;;;7.18;3.38;;;;;;;17.78;76.37;98259.66;5035384;28;20045;-59
2021/07/16 02:52:34;;;;;;;9.07;2.38;;;;;;;17.49;76.53;98230.06;5021704;28;20033;-59
2021/07/16 02:55:00;;;;;;;4.45;2.22;;;;;;;17.66;76.83;98259.44;5015610;28;20033;-58
2021/07/16 02:57:25;;;;;;;5.35;3.08;;;;;;;17.62;76.93;98267.91;5030089;28;20694;-59
2021/07/16 02:59:51;;;;;;;8.15;3.15;;;;;;;17.67;77.11;98261.06;5016600;28;20034;-59
2021/07/16 03:02:16;;;;;;;6.10;2.40;;;;;;;17.71;77.13;98258.84;5016506;28;20034;-59
2021/07/16 03:04:42;;;;;;;7.63;3.20;;;;;;;17.48;76.81;98223.19;5020059;28;20527;-59
2021/07/16 03:07:07;;;;;;;6.40;5.75;;;;;;;17.72;77.00;98257.00;5022359;28;20043;-60
2021/07/16 03:09:34;;;;;;;4.70;2.63;;;;;;;17.66;77.00;98256.00;5020741;28;20033;-59
2021/07/16 03:12:04;;;;;;;5.78;3.08;;;;;;;17.57;77.54;98262.44;5036826;28;20030;-59
2021/07/16 03:14:29;;;;;;;5.65;2.60;;;;;;;17.61;77.05;98261.03;5017708;28;20040;-59
2021/07/16 03:16:55;;;;;;;7.32;3.08;;;;;;;17.54;77.35;98257.56;5035390;28;20029;-59
2021/07/16 03:19:20;;;;;;;14.52;13.35;;;;;;;17.60;76.90;98256.81;5033412;28;20034;-58
2021/07/16 03:21:46;;;;;;;5.68;2.42;;;;;;;17.58;77.35;98257.00;5021060;28;20029;-58
2021/07/16 03:24:11;;;;;;;10.30;4.05;;;;;;;17.55;77.05;98254.75;5019080;28;20048;-57
2021/07/16 03:26:38;;;;;;;6.20;3.55;;;;;;;17.26;77.06;98211.19;5010019;28;20044;-59
2021/07/16 03:29:05;;;;;;;7.18;2.58;;;;;;;17.51;77.72;98258.00;5022925;28;20026;-59
2021/07/16 03:31:30;;;;;;;7.10;3.22;;;;;;;17.22;77.56;98208.16;5016300;28;20053;-59
2021/07/16 03:33:55;;;;;;;21.60;20.35;;;;;;;17.20;77.87;98204.13;5018909;28;20103;-60
2021/07/16 03:36:21;;;;;;;6.82;3.05;;;;;;;17.48;77.93;98246.84;5018954;28;20083;-59
2021/07/16 03:38:47;;;;;;;4.20;2.53;;;;;;;17.39;78.01;98250.66;5017295;28;20611;-56
2021/07/16 03:41:14;;;;;;;5.13;2.90;;;;;;;17.43;78.16;98246.66;5031973;28;20276;-59
2021/07/16 03:43:40;;;;;;;6.53;3.53;;;;;;;17.39;78.26;98249.84;5026499;28;20033;-59
2021/07/16 03:46:05;;;;;;;4.72;2.53;;;;;;;17.37;78.31;98247.41;5019254;28;20099;-56
2021/07/16 03:48:32;;;;;;;5.20;3.58;;;;;;;17.45;78.04;98254.31;5018994;28;20037;-60
2021/07/16 03:50:58;;;;;;;5.78;3.75;;;;;;;17.35;78.60;98254.69;5017857;28;20035;-58
2021/07/16 03:53:23;;;;;;;6.07;3.28;;;;;;;17.31;78.79;98245.59;5037050;28;20037;-59
2021/07/16 03:55:48;;;;;;;4.88;2.85;;;;;;;17.16;78.56;98222.09;5021754;28;20039;-58
2021/07/16 03:58:14;;;;;;;5.00;2.90;;;;;;;17.27;78.15;98223.34;5018813;28;20029;-59
2021/07/16 04:00:39;;;;;;;5.95;3.55;;;;;;;17.38;78.53;98259.56;5013908;28;20167;-59
2021/07/16 04:03:05;;;;;;;4.72;2.55;;;;;;;17.06;78.84;98208.50;5020242;28;20464;-59
2021/07/16 04:05:32;;;;;;;5.40;2.88;;;;;;;17.28;79.16;98252.03;5000534;28;20056;-60
2021/07/16 04:08:03;;;;;;;6.07;3.55;;;;;;;17.02;78.67;98215.97;5031750;28;20025;-59
2021/07/16 04:10:30;;;;;;;8.63;3.47;;;;;;;17.40;78.66;98269.88;5013834;28;20104;-59
2021/07/16 04:12:57;;;;;;;7.07;3.95;;;;;;;17.07;78.71;98237.22;5015674;28;20025;-59
2021/07/16 04:15:25;;;;;;;6.25;3.30;;;;;;;17.27;78.96;98263.56;5030729;28;20038;-61
2021/07/16 04:17:52;;;;;;;6.85;5.32;;;;;;;17.28;79.16;98273.03;5030834;28;20602;-61
2021/07/16 04:20:17;;;;;;;6.25;3.15;;;;;;;17.09;78.83;98232.56;5021671;28;20033;-58
2021/07/16 04:22:45;;;;;;;5.30;3.00;;;;;;;17.34;78.59;98281.16;5018337;28;20116;-59
2021/07/16 04:25:14;;;;;;;5.47;3.10;;;;;;;17.28;79.27;98288.81;5014302;28;20086;-60
2021/07/16 04:27:41;;;;;;;5.35;2.67;;;;;;;17.25;79.29;98285.78;5022998;28;20496;-60
2021/07/16 04:30:08;;;;;;;6.72;3.20;;;;;;;17.22;79.50;98300.13;5016707;28;20029;-60
2021/07/16 04:32:33;;;;;;;6.95;4.30;;;;;;;17.26;79.20;98288.19;5021347;28;20033;-60
2021/07/16 04:34:59;;;;;;;4.63;2.20;;;;;;;17.29;79.27;98294.91;5018007;28;20430;-60
2021/07/16 04:37:24;;;;;;;5.53;3.17;;;;;;;17.27;78.80;98281.16;5016910;28;22305;-59
2021/07/16 04:39:50;;;;;;;5.63;2.80;;;;;;;17.35;79.03;98283.59;5017715;28;20034;-59
2021/07/16 04:42:16;;;;;;;5.57;3.78;;;;;;;17.39;78.64;98289.28;5020366;28;20025;-60
2021/07/16 04:44:41;;;;;;;7.07;6.38;;;;;;;17.41;78.70;98282.81;5013628;28;20033;-60
2021/07/16 04:47:07;;;;;;;6.03;3.90;;;;;;;17.31;77.77;98255.28;5023310;28;20087;-60
2021/07/16 04:49:32;;;;;;;5.47;2.85;;;;;;;17.54;77.72;98284.69;5020359;28;20041;-59
2021/07/16 04:51:59;;;;;;;5.32;3.28;;;;;;;17.43;78.46;98285.22;5018472;28;20605;-60
2021/07/16 04:54:24;;;;;;;5.90;3.13;;;;;;;17.47;77.76;98279.41;5014219;28;20218;-60
2021/07/16 04:56:50;;;;;;;7.18;3.03;;;;;;;17.55;77.53;98283.66;5021547;28;20491;-60
2021/07/16 04:59:15;;;;;;;6.22;2.55;;;;;;;17.24;77.95;98242.13;5037181;28;20037;-60
2021/07/16 05:01:41;;;;;;;6.38;5.57;;;;;;;17.44;77.65;98269.28;5019427;28;20068;-60
2021/07/16 05:04:06;;;;;;;5.70;2.53;;;;;;;17.42;78.11;98273.91;5013552;28;20034;-60
2021/07/16 05:06:31;;;;;;;8.70;6.75;;;;;;;17.44;77.65;98271.91;5014549;28;20029;-60
2021/07/16 05:08:57;;;;;;;6.63;2.75;;;;;;;17.47;78.21;98279.41;5017174;28;20034;-60
2021/07/16 05:11:22;;;;;;;7.25;3.05;;;;;;;17.55;78.01;98285.50;5013096;28;20092;-60
2021/07/16 05:13:48;;;;;;;5.72;2.90;;;;;;;17.54;77.65;98271.53;5018292;28;20033;-60
2021/07/16 05:16:15;;;;;;;5.60;2.78;;;;;;;17.59;77.79;98281.44;5019841;28;20021;-59
2021/07/16 05:18:41;;;;;;;6.32;3.25;;;;;;;17.05;77.72;98205.06;5017369;28;20037;-60
2021/07/16 05:21:08;;;;;;;6.22;2.75;;;;;;;17.40;77.73;98262.81;5017278;28;20080;-60
2021/07/16 05:23:34;;;;;;;5.13;3.13;;;;;;;17.60;77.55;98280.47;5035789;28;20116;-60
2021/07/16 05:26:00;;;;;;;5.13;2.88;;;;;;;17.64;77.28;98281.69;5034785;28;20091;-59
2021/07/16 05:28:26;;;;;;;18.67;17.27;;;;;;;17.38;77.20;98248.25;5024456;28;20029;-59
2021/07/16 05:30:52;;;;;;;5.47;4.32;;;;;;;17.51;77.88;98271.94;5022125;28;20033;-60
2021/07/16 05:33:17;;;;;;;4.95;2.55;;;;;;;17.45;77.62;98249.06;5021581;28;20041;-60
2021/07/16 05:35:43;;;;;;;5.30;3.30;;;;;;;17.65;78.08;98286.75;5040082;28;20032;-60
2021/07/16 05:38:09;;;;;;;7.32;3.20;;;;;;;17.65;77.32;98285.91;5012572;28;20034;-59
2021/07/16 05:40:35;;;;;;;4.90;2.63;;;;;;;17.65;78.05;98288.53;5034524;28;20034;-60
2021/07/16 05:43:06;;;;;;;7.60;3.17;;;;;;;17.48;77.16;98257.34;5016885;28;20029;-60
2021/07/16 05:45:31;;;;;;;5.05;2.80;;;;;;;17.63;77.53;98296.66;5023915;28;20032;-60
2021/07/16 05:47:59;;;;;;;6.82;5.97;;;;;;;17.72;77.63;98302.50;5016309;28;20034;-61
2021/07/16 05:50:25;;;;;;;4.82;2.78;;;;;;;17.78;77.42;98303.53;5019358;28;20083;-60
2021/07/16 05:52:50;;;;;;;6.38;3.17;;;;;;;17.70;76.69;98301.09;5017238;28;20030;-59
2021/07/16 05:55:16;;;;;;;5.53;2.92;;;;;;;17.67;77.54;98310.22;5022297;28;20140;-62
2021/07/16 05:57:41;;;;;;;5.57;2.72;;;;;;;17.72;77.34;98305.16;5025432;28;20112;-60
2021/07/16 06:00:07;;;;;;;4.85;3.00;;;;;;;17.71;77.52;98290.41;5012456;28;20533;-60
2021/07/16 06:02:32;;;;;;;7.32;2.65;;;;;;;17.75;77.19;98304.75;5009900;28;20058;-59
2021/07/16 06:04:58;;;;;;;5.00;2.80;;;;;;;17.75;77.27;98298.69;5029553;28;20670;-60
2021/07/16 06:07:23;;;;;;;6.13;3.45;;;;;;;17.78;76.71;98291.22;5019537;28;20137;-60
2021/07/16 06:09:48;;;;;;;15.40;14.35;;;;;;;17.54;76.50;98257.56;5020300;28;20076;-60
2021/07/16 06:12:14;;;;;;;5.88;2.25;;;;;;;17.82;76.86;98296.91;5035811;28;20124;-60
2021/07/16 06:14:40;;;;;;;6.57;4.45;;;;;;;17.80;77.02;98297.09;5020570;28;20026;-60
2021/07/16 06:17:05;;;;;;;4.55;2.80;;;;;;;17.81;77.49;98296.06;5019531;28;20449;-59
2021/07/16 06:19:31;;;;;;;6.53;2.90;;;;;;;17.94;76.14;98308.47;5033809;28;20060;-58
2021/07/16 06:21:56;;;;;;;11.57;10.68;;;;;;;17.93;75.37;98304.22;5019743;28;20140;-61
2021/07/16 06:24:22;;;;;;;5.45;4.20;;;;;;;17.89;75.81;98307.44;5030828;28;20032;-60
2021/07/16 06:26:47;;;;;;;7.38;3.45;;;;;;;17.85;76.21;98312.28;5025231;28;20045;-59
2021/07/16 06:29:12;;;;;;;8.88;5.38;;;;;;;17.84;75.75;98302.75;5016229;28;20674;-59
2021/07/16 06:31:38;;;;;;;4.80;2.95;;;;;;;17.94;76.07;98302.41;5021630;28;20139;-59
2021/07/16 06:34:03;;;;;;;8.10;3.17;;;;;;;17.91;76.38;98297.56;5016822;28;20033;-60
2021/07/16 06:36:29;;;;;;;6.60;3.30;;;;;;;18.09;75.91;98303.03;5030903;28;20407;-59
2021/07/16 06:38:54;;;;;;;5.35;2.38;;;;;;;17.84;75.79;98274.63;5020712;28;20037;-60
2021/07/16 06:41:20;;;;;;;6.45;2.92;;;;;;;18.02;75.73;98310.91;5020598;28;20184;-60
2021/07/16 06:43:45;;;;;;;7.68;2.95;;;;;;;18.06;75.46;98306.06;5013068;28;20038;-62
2021/07/16 06:46:12;;;;;;;5.80;2.85;;;;;;;18.11;75.10;98314.19;5017992;28;20044;-59
2021/07/16 06:48:38;;;;;;;17.50;16.25;;;;;;;18.06;75.17;98316.59;5034204;28;20026;-58
2021/07/16 06:51:04;;;;;;;7.32;3.22;;;;;;;18.09;74.85;98313.56;5036602;28;20037;-60
2021/07/16 06:53:29;;;;;;;6.50;2.42;;;;;;;18.07;74.45;98315.59;5011736;28;20495;-60
2021/07/16 06:55:55;;;;;;;5.05;2.97;;;;;;;18.02;74.68;98304.84;5013216;28;20072;-59
2021/07/16 06:58:20;;;;;;;4.50;2.78;;;;;;;18.23;74.61;98328.38;5011721;28;20097;-60
2021/07/16 07:00:47;;;;;;;5.60;2.65;;;;;;;18.22;74.57;98324.09;5018687;28;20037;-61
2021/07/16 07:03:13;;;;;;;5.22;2.45;;;;;;;18.11;74.17;98287.88;5014852;28;20036;-60
2021/07/16 07:05:38;;;;;;;7.38;6.68;;;;;;;18.31;73.66;98322.09;5021873;28;20033;-60
2021/07/16 07:08:04;;;;;;;5.75;3.58;;;;;;;18.42;73.39;98318.84;5035717;28;20424;-60
2021/07/16 07:10:30;;;;;;;8.05;3.00;;;;;;;18.43;73.38;98319.66;5031886;28;20596;-60
2021/07/16 07:12:55;;;;;;;5.53;2.90;;;;;;;18.50;73.71;98317.03;5013425;28;20057;-60
2021/07/16 07:15:21;;;;;;;8.63;4.97;;;;;;;18.29;73.42;98279.38;5016482;28;20124;-59
2021/07/16 07:17:46;;;;;;;5.10;3.00;;;;;;;18.54;73.97;98319.03;5008901;28;20029;-60
2021/07/16 07:20:12;;;;;;;7.65;3.17;;;;;;;18.54;73.28;98313.78;5027551;28;20026;-60
2021/07/16 07:22:37;;;;;;;5.03;2.47;;;;;;;18.57;73.50;98313.38;5013869;28;20037;-60
2021/07/16 07:25:04;;;;;;;5.97;2.55;;;;;;;18.36;73.01;98261.78;5021617;28;20679;-60
2021/07/16 07:27:31;;;;;;;5.93;3.38;;;;;;;18.51;72.67;98287.03;5027129;28;20041;-60
2021/07/16 07:29:56;;;;;;;4.95;2.10;;;;;;;18.49;71.35;98274.13;5011573;28;20037;-61
2021/07/16 07:32:21;;;;;;;4.97;2.10;;;;;;;18.88;71.60;98313.78;5029397;28;20033;-60
2021/07/16 07:34:47;;;;;;;4.50;2.25;;;;;;;18.86;71.95;98321.91;5016135;28;20029;-61
2021/07/16 07:37:12;;;;;;;5.85;2.92;;;;;;;18.93;72.30;98313.97;5009967;28;20095;-59
2021/07/16 07:39:38;;;;;;;5.82;2.28;;;;;;;18.78;72.02;98272.03;5015847;28;20032;-59
2021/07/16 07:42:03;;;;;;;5.00;2.67;;;;;;;19.10;72.79;98307.25;5020055;28;20033;-60
2021/07/16 07:44:29;;;;;;;5.00;2.30;;;;;;;19.16;71.91;98309.03;5038581;28;20041;-60
2021/07/16 07:46:54;;;;;;;4.25;2.05;;;;;;;19.16;71.87;98301.13;5019719;28;20064;-62
2021/07/16 07:49:19;;;;;;;4.63;2.33;;;;;;;19.06;71.14;98266.53;5014146;28;20033;-62
2021/07/16 07:51:45;;;;;;;5.25;2.38;;;;;;;19.63;71.09;98305.44;5018676;28;20055;-63
2021/07/16 07:54:10;;;;;;;4.55;2.17;;;;;;;19.52;70.37;98270.00;5016264;28;20037;-62
2021/07/16 07:56:36;;;;;;;5.15;2.33;;;;;;;19.94;69.65;98315.22;5022248;28;20495;-61
2021/07/16 07:59:03;;;;;;;4.63;2.35;;;;;;;19.84;69.27;98309.59;5020969;28;20160;-62
2021/07/16 08:01:29;;;;;;;4.82;2.08;;;;;;;19.83;68.97;98318.56;5021995;28;20266;-62
2021/07/16 08:03:54;;;;;;;5.03;1.90;;;;;;;20.50;67.12;98314.44;4999268;28;20064;-62
2021/07/16 08:06:20;;;;;;;6.70;2.47;;;;;;;20.63;65.74;98310.09;5015367;28;20029;-64
2021/07/16 08:08:45;;;;;;;5.90;2.17;;;;;;;21.34;64.28;98303.47;5017420;28;20269;-62
2021/07/16 08:11:11;;;;;;;5.47;2.22;;;;;;;21.40;64.54;98307.84;5014200;28;20025;-62
2021/07/16 08:13:36;;;;;;;6.93;2.35;;;;;;;21.97;62.79;98307.53;5010482;28;20029;-62
2021/07/16 08:16:02;;;;;;;5.18;2.03;;;;;;;21.85;62.60;98312.00;5027238;28;20041;-62
2021/07/16 08:18:29;;;;;;;5.93;2.17;;;;;;;22.13;62.16;98310.59;5027718;28;20415;-62
2021/07/16 08:20:55;;;;;;;4.65;2.10;;;;;;;21.89;62.22;98308.66;5023095;28;20463;-61
2021/07/16 08:23:21;;;;;;;4.57;1.88;;;;;;;21.99;61.65;98312.59;5020553;28;20108;-62
2021/07/16 08:25:46;;;;;;;5.15;2.53;;;;;;;21.91;61.74;98305.78;5025840;28;20087;-61
2021/07/16 08:28:12;;;;;;;7.03;2.30;;;;;;;;;;5021106;28;20053;-61
2021/07/16 08:30:37;;;;;;;4.43;1.83;;;;;;;22.57;59.50;98274.03;5014434;28;20017;-62
2021/07/16 08:33:03;;;;;;;5.47;2.22;;;;;;;23.18;59.14;98296.59;5013198;28;20110;-61
2021/07/16 08:35:28;;;;;;;5.88;2.53;;;;;;;23.13;58.80;98254.06;5016839;28;20477;-62
2021/07/16 08:37:54;;;;;;;4.60;2.60;;;;;;;23.79;56.18;98293.50;5010507;28;20033;-59
2021/07/16 08:40:19;;;;;;;6.85;2.97;;;;;;;23.51;56.39;98299.59;5020698;28;20025;-62
2021/07/16 08:42:47;;;;;;;4.97;2.70;;;;;;;23.19;57.04;98292.88;5017575;28;20042;-60
2021/07/16 08:45:13;;;;;;;5.68;2.33;;;;;;;23.53;54.58;98286.91;5016433;28;20121;-62
2021/07/16 08:47:39;;;;;;;5.18;2.45;;;;;;;24.68;50.37;98286.72;5015890;28;20069;-61
2021/07/16 08:50:06;;;;;;;4.25;2.55;;;;;;;25.02;49.12;98290.13;5016337;28;20034;-60
2021/07/16 08:52:32;;;;;;;4.60;2.60;;;;;;;25.37;48.24;98265.00;5017066;28;20032;-59
2021/07/16 08:55:00;;;;;;;5.15;2.67;;;;;;;25.19;49.03;98291.91;5017824;28;20033;-60
2021/07/16 08:57:27;;;;;;;5.25;2.97;;;;;;;25.09;47.83;98295.25;5022369;28;20132;-62
2021/07/16 08:59:53;;;;;;;5.20;3.22;;;;;;;24.92;48.50;98295.31;5037116;28;20037;-59
2021/07/16 09:02:18;;;;;;;7.30;3.67;;;;;;;24.78;47.99;98291.41;5020731;28;20036;-62
2021/07/16 09:04:44;;;;;;;5.47;3.65;;;;;;;25.07;47.09;98278.75;5015922;28;20099;-62
2021/07/16 09:07:10;;;;;;;5.40;3.58;;;;;;;25.28;48.11;98280.63;5020458;28;20041;-62
2021/07/16 09:09:40;;;;;;;4.50;2.92;;;;;;;25.70;47.58;98249.91;5038677;28;20380;-62
2021/07/16 09:12:13;;;;;;;5.47;3.88;;;;;;;26.26;46.16;98281.59;5021615;28;20033;-60
2021/07/16 09:14:39;;;;;;;6.72;4.13;;;;;;;26.20;46.46;98278.09;5020062;28;20187;-62
2021/07/16 09:17:06;;;;;;;4.50;3.30;;;;;;;26.44;47.09;98246.53;5035028;28;20036;-62
2021/07/16 09:19:47;;;;;;;6.78;3.85;;;;;;;26.37;47.16;98274.47;5023422;28;20484;-62
2021/07/16 09:22:20;;;;;;;5.78;5.20;;;;;;;25.91;46.26;98250.91;5004255;28;20629;-62
2021/07/16 09:24:57;;;;;;;5.35;4.85;;;;;;;26.03;45.46;98274.75;5014560;28;20033;-60
2021/07/16 09:27:42;;;;;;;6.50;5.47;;;;;;;25.26;46.98;98244.69;5019762;28;20044;-62
2021/07/16 09:30:22;;;;;;;4.10;3.10;;;;;;;25.22;48.73;98278.13;5015625;28;20481;-61
2021/07/16 09:33:09;;;;;;;4.82;3.55;;;;;;;26.09;48.29;98269.22;5012969;28;20029;-62
2021/07/16 09:35:38;;;;;;;5.45;2.90;;;;;;;26.27;45.75;98264.56;5017516;28;20025;-62
2021/07/16 09:38:12;;;;;;;7.50;3.78;;;;;;;26.20;43.71;98216.00;5023290;28;20037;-62
2021/07/16 09:40:40;;;;;;;4.63;3.35;;;;;;;26.93;43.69;98274.84;5019379;28;20399;-62
2021/07/16 09:43:12;;;;;;;4.85;4.03;;;;;;;26.91;40.64;98263.63;5035709;28;20029;-61
2021/07/16 09:45:39;;;;;;;7.15;4.20;;;;;;;26.98;40.82;98234.03;5037265;28;20687;-59
2021/07/16 09:48:38;;;;;;;5.40;3.95;;;;;;;26.96;41.22;98263.66;5019710;28;20033;-59
2021/07/16 09:51:12;;;;;;;5.63;4.85;;;;;;;26.78;42.06;98262.25;4994488;28;20488;-62
2021/07/16 09:53:41;;;;;;;5.85;5.35;;;;;;;26.09;43.42;98255.09;5026709;28;20057;-59
2021/07/16 09:56:17;;;;;;;5.80;4.30;;;;;;;25.95;43.83;98221.94;5015949;28;20484;-62
2021/07/16 09:58:43;;;;;;;5.45;4.28;;;;;;;25.53;44.07;98215.44;5023553;28;20279;-60
2021/07/16 10:01:09;;;;;;;4.72;3.60;;;;;;;25.33;46.61;98250.63;5036546;28;20030;-60
2021/07/16 10:03:38;;;;;;;5.07;3.88;;;;;;;25.28;45.88;98248.72;5023927;28;20041;-59
2021/07/16 10:06:04;;;;;;;4.93;2.70;;;;;;;25.21;48.81;98257.88;5036366;28;20040;-60
2021/07/16 10:08:33;;;;;;;7.50;3.88;;;;;;;24.96;47.56;98253.88;5015315;28;20057;-61
2021/07/16 10:11:05;;;;;;;4.68;3.10;;;;;;;24.25;47.54;98224.44;5016899;28;20041;-60
2021/07/16 10:13:32;;;;;;;4.50;2.60;;;;;;;24.30;48.84;98253.75;5019564;28;20582;-60
2021/07/16 10:15:59;;;;;;;5.65;2.80;;;;;;;24.29;49.06;98244.16;5015476;28;20040;-60
2021/07/16 10:18:25;;;;;;;7.55;2.17;;;;;;;24.20;49.05;98251.72;5038797;28;20037;-60
2021/07/16 10:20:50;;;;;;;4.00;1.90;;;;;;;24.21;48.13;98253.34;5014340;28;20033;-59
2021/07/16 10:23:16;;;;;;;3.95;2.15;;;;;;;24.28;46.94;98246.00;5022215;28;20032;-61
2021/07/16 10:25:42;;;;;;;4.38;1.90;;;;;;;24.34;47.95;98249.53;5015119;28;20048;-61
2021/07/16 10:28:08;;;;;;;4.40;1.90;;;;;;;24.38;47.17;98248.00;5020702;28;20013;-59
2021/07/16 10:30:35;;;;;;;4.80;1.92;;;;;;;24.35;48.18;98249.31;5017971;28;20064;-63
2021/07/16 10:33:01;;;;;;;4.22;2.15;;;;;;;24.29;47.70;98210.41;5039565;28;20116;-63
2021/07/16 10:35:27;;;;;;;3.33;1.77;;;;;;;24.38;46.41;98214.25;5019776;28;20056;-63
2021/07/16 10:37:59;;;;;;;3.60;1.75;;;;;;;24.52;47.39;98237.84;5013291;28;20029;-63
2021/07/16 10:40:41;;;;;;;4.13;2.33;;;;;;;24.35;47.37;98248.47;5022009;28;20099;-62
2021/07/16 10:43:27;;;;;;;4.78;1.80;;;;;;;24.03;47.42;98250.91;5033273;28;20499;-62
2021/07/16 10:45:53;;;;;;;3.70;1.90;;;;;;;23.78;47.90;98236.97;5014340;28;20046;-62
2021/07/16 10:48:32;;;;;;;3.85;2.00;;;;;;;23.67;48.43;98207.81;5022332;28;20049;-63
2021/07/16 10:50:58;;;;;;;3.73;1.67;;;;;;;23.99;50.42;98239.97;5016682;28;20060;-63
2021/07/16 10:53:26;;;;;;;3.95;1.75;;;;;;;23.98;50.11;98244.50;5019700;28;20256;-62
2021/07/16 10:55:55;;;;;;;4.82;2.10;;;;;;;24.04;48.60;98241.91;5015291;28;20500;-62
2021/07/16 10:58:28;;;;;;;3.20;1.60;;;;;;;23.85;46.27;98244.78;5022814;28;20085;-63
2021/07/16 11:01:04;;;;;;;3.53;1.65;;;;;;;23.64;48.63;98248.91;5018181;28;20033;-62
2021/07/16 11:03:43;;;;;;;4.25;1.70;;;;;;;23.51;50.03;98243.88;5024441;28;20036;-61
2021/07/16 11:06:11;;;;;;;4.63;2.08;;;;;;;23.51;52.60;98251.84;5013375;28;20054;-62
2021/07/16 11:08:37;;;;;;;4.22;1.67;;;;;;;23.58;50.33;98248.03;5018526;28;20037;-60
2021/07/16 11:11:04;;;;;;;4.28;1.63;;;;;;;23.47;50.39;98242.75;5014807;28;20133;-62
2021/07/16 11:13:34;;;;;;;3.13;1.52;;;;;;;23.47;48.56;98250.72;5020242;28;20060;-63
2021/07/16 11:15:59;;;;;;;;;;;;;;;23.43;49.95;98242.41;5019129;28;20029;-62
2021/07/16 11:18:27;;;;;;;5.03;1.80;;;;;;;23.45;56.11;98235.03;5017545;28;20618;-62
2021/07/16 11:20:53;;;;;;;3.25;1.25;;;;;;;23.38;59.09;98242.31;5037165;28;20025;-61
2021/07/16 11:23:20;;;;;;;4.55;1.55;;;;;;;23.08;61.31;98242.53;5016011;28;20053;-63
2021/07/16 11:25:45;;;;;;;5.82;1.92;;;;;;;22.95;61.60;98246.25;5034152;28;20134;-62
2021/07/16 11:28:11;;;;;;;3.28;1.35;;;;;;;22.96;61.89;98234.56;5037251;28;20528;-62
2021/07/16 11:30:36;;;;;;;3.53;1.50;;;;;;;23.05;59.54;98241.16;5034619;28;20068;-62
2021/07/16 11:33:06;;;;;;;3.80;1.67;;;;;;;22.93;59.71;98229.75;5021982;28;20484;-59